createdAt,value
2018-08-02T00:00:34.119Z,20.79
2018-08-02T00:03:02.981Z,20.76
2018-08-02T00:05:32.088Z,20.71
2018-08-02T00:08:00.903Z,20.67
2018-08-02T00:10:29.768Z,20.64
2018-08-02T00:12:58.784Z,20.61
2018-08-02T00:15:27.524Z,20.55
2018-08-02T00:17:56.443Z,20.50
2018-08-02T00:20:25.149Z,20.44
2018-08-02T00:22:53.932Z,20.40
2018-08-02T00:25:22.985Z,20.36
2018-08-02T00:27:51.701Z,20.28
2018-08-02T00:30:20.879Z,20.19
2018-08-02T00:32:49.654Z,20.09
2018-08-02T00:35:18.581Z,20.03
2018-08-02T00:37:47.692Z,19.98
2018-08-02T00:40:16.498Z,19.97
2018-08-02T00:42:48.191Z,19.96
2018-08-02T00:45:17.202Z,19.95
2018-08-02T00:47:46.339Z,19.90
2018-08-02T00:50:15.633Z,19.90
2018-08-02T00:52:44.419Z,19.92
2018-08-02T00:55:13.345Z,19.90
2018-08-02T00:57:42.536Z,19.92
2018-08-02T01:00:11.897Z,19.91
2018-08-02T01:02:40.723Z,19.86
2018-08-02T01:05:09.646Z,19.83
2018-08-02T01:07:38.518Z,19.80
2018-08-02T01:10:08.048Z,19.76
2018-08-02T01:12:37.119Z,19.75
2018-08-02T01:15:06.132Z,19.72
2018-08-02T01:17:34.842Z,19.70
2018-08-02T01:20:04.088Z,19.69
2018-08-02T01:22:34.082Z,19.67
2018-08-02T01:25:02.813Z,19.67
2018-08-02T01:27:31.638Z,19.67
2018-08-02T01:30:00.436Z,19.64
2018-08-02T01:32:29.250Z,19.62
2018-08-02T01:34:57.967Z,19.58
2018-08-02T01:37:26.722Z,19.56
2018-08-02T01:39:55.578Z,19.54
2018-08-02T01:42:24.529Z,19.53
2018-08-02T01:44:54.455Z,19.51
2018-08-02T01:47:24.591Z,19.49
2018-08-02T01:49:53.342Z,19.45
2018-08-02T01:52:22.362Z,19.39
2018-08-02T01:54:51.487Z,19.34
2018-08-02T01:57:20.695Z,19.30
2018-08-02T01:59:49.456Z,19.27
2018-08-02T02:02:18.153Z,19.24
2018-08-02T02:04:47.143Z,19.22
2018-08-02T02:07:15.956Z,19.18
2018-08-02T02:09:47.694Z,19.16
2018-08-02T02:12:16.879Z,19.15
2018-08-02T02:14:45.810Z,19.14
2018-08-02T02:17:15.078Z,19.12
2018-08-02T02:19:43.860Z,19.12
2018-08-02T02:22:12.975Z,19.09
2018-08-02T02:24:42.586Z,19.08
2018-08-02T02:27:11.398Z,19.05
2018-08-02T02:29:40.694Z,19.00
2018-08-02T02:32:10.074Z,18.96
2018-08-02T02:34:39.018Z,18.95
2018-08-02T02:37:08.253Z,18.94
2018-08-02T02:39:37.000Z,18.93
2018-08-02T02:42:05.946Z,18.92
2018-08-02T02:44:34.818Z,18.90
2018-08-02T02:47:03.494Z,18.88
2018-08-02T02:49:32.231Z,18.86
2018-08-02T02:52:01.092Z,18.84
2018-08-02T02:54:30.819Z,18.82
2018-08-02T02:56:59.569Z,18.81
2018-08-02T02:59:28.543Z,18.81
2018-08-02T03:01:57.910Z,18.80
2018-08-02T03:04:26.623Z,18.78
2018-08-02T03:06:55.816Z,18.74
2018-08-02T03:09:24.620Z,18.71
2018-08-02T03:11:53.749Z,18.68
2018-08-02T03:14:22.586Z,18.68
2018-08-02T03:16:51.959Z,18.66
2018-08-02T03:19:21.464Z,18.64
2018-08-02T03:21:50.314Z,18.63
2018-08-02T03:24:19.292Z,18.60
2018-08-02T03:26:48.037Z,18.57
2018-08-02T03:29:16.862Z,18.57
2018-08-02T03:31:45.922Z,18.54
2018-08-02T03:34:15.410Z,18.53
2018-08-02T03:36:44.275Z,18.53
2018-08-02T03:39:13.007Z,18.49
2018-08-02T03:41:41.719Z,18.43
2018-08-02T03:44:10.903Z,18.38
2018-08-02T03:46:39.562Z,18.35
2018-08-02T03:49:08.750Z,18.32
2018-08-02T03:51:37.489Z,18.30
2018-08-02T03:54:06.469Z,18.28
2018-08-02T03:56:35.858Z,18.26
2018-08-02T03:59:04.823Z,18.26
2018-08-02T04:01:33.867Z,18.24
2018-08-02T04:04:03.010Z,18.23
2018-08-02T04:06:32.207Z,18.21
2018-08-02T04:09:01.017Z,18.20
2018-08-02T04:11:29.775Z,18.18
2018-08-02T04:13:58.914Z,18.16
2018-08-02T04:16:27.607Z,18.15
2018-08-02T04:18:56.390Z,18.15
2018-08-02T04:21:25.939Z,18.13
2018-08-02T04:23:55.020Z,18.11
2018-08-02T04:26:24.597Z,18.13
2018-08-02T04:28:53.735Z,18.15
2018-08-02T04:31:22.507Z,18.19
2018-08-02T04:33:51.279Z,18.20
2018-08-02T04:36:20.358Z,18.20
2018-08-02T04:38:49.077Z,18.20
2018-08-02T04:41:18.347Z,18.21
2018-08-02T04:43:47.541Z,18.23
2018-08-02T04:46:16.281Z,18.21
2018-08-02T04:48:45.002Z,18.20
2018-08-02T04:51:13.710Z,18.21
2018-08-02T04:53:44.706Z,18.20
2018-08-02T04:56:13.481Z,18.23
2018-08-02T04:58:42.816Z,18.26
2018-08-02T05:01:12.176Z,18.28
2018-08-02T05:03:40.921Z,18.29
2018-08-02T05:06:09.644Z,18.33
2018-08-02T05:08:38.410Z,18.38
2018-08-02T05:11:07.443Z,18.44
2018-08-02T05:13:36.280Z,18.49
2018-08-02T05:16:04.959Z,18.54
2018-08-02T05:18:33.734Z,18.60
2018-08-02T05:21:02.468Z,18.68
2018-08-02T05:23:31.507Z,18.75
2018-08-02T05:26:00.734Z,18.85
2018-08-02T05:28:29.810Z,18.92
2018-08-02T05:30:58.563Z,19.00
2018-08-02T05:33:27.315Z,19.10
2018-08-02T05:35:56.386Z,19.19
2018-08-02T05:38:25.310Z,19.28
2018-08-02T05:40:56.939Z,19.38
2018-08-02T05:43:25.790Z,19.48
2018-08-02T05:45:54.637Z,19.59
2018-08-02T05:48:23.924Z,19.67
2018-08-02T05:50:52.728Z,19.78
2018-08-02T05:53:21.607Z,19.88
2018-08-02T05:55:50.693Z,20.02
2018-08-02T05:58:19.527Z,20.14
2018-08-02T06:00:48.333Z,20.22
2018-08-02T06:03:17.073Z,20.38
2018-08-02T06:05:45.908Z,20.52
2018-08-02T06:08:14.745Z,20.64
2018-08-02T06:10:44.228Z,20.79
2018-08-02T06:15:41.189Z,20.96
2018-08-02T06:18:09.939Z,21.03
2018-08-02T06:20:39.037Z,21.09
2018-08-02T06:23:08.013Z,21.20
2018-08-02T06:25:36.978Z,21.31
2018-08-02T06:28:06.216Z,21.40
2018-08-02T06:30:35.250Z,21.57
2018-08-02T06:33:04.091Z,21.67
2018-08-02T06:35:33.135Z,21.79
2018-08-02T06:38:02.090Z,21.91
2018-08-02T06:40:31.238Z,22.04
2018-08-02T06:43:00.786Z,22.12
2018-08-02T06:45:29.691Z,22.24
2018-08-02T06:47:57.119Z,22.34
2018-08-02T06:50:25.819Z,22.49
2018-08-02T06:52:54.621Z,22.65
2018-08-02T06:55:23.579Z,22.74
2018-08-02T06:57:52.852Z,22.84
2018-08-02T07:00:21.662Z,22.97
2018-08-02T07:02:51.957Z,23.15
2018-08-02T07:05:20.681Z,23.28
2018-08-02T07:07:49.758Z,23.40
2018-08-02T07:10:19.143Z,23.58
2018-08-02T07:12:47.871Z,23.71
2018-08-02T07:15:16.628Z,23.94
2018-08-02T07:17:45.611Z,24.11
2018-08-02T07:20:14.621Z,24.38
2018-08-02T07:22:43.649Z,24.58
2018-08-02T07:25:12.709Z,24.80
2018-08-02T07:27:41.883Z,25.03
2018-08-02T07:30:10.661Z,25.18
2018-08-02T07:32:39.436Z,25.24
2018-08-02T07:35:08.128Z,25.33
2018-08-02T07:37:37.114Z,25.49
2018-08-02T07:40:06.461Z,25.66
2018-08-02T07:42:35.557Z,25.85
2018-08-02T07:45:04.560Z,26.04
2018-08-02T07:47:33.704Z,26.21
2018-08-02T07:50:02.487Z,26.38
2018-08-02T07:52:31.260Z,26.55
2018-08-02T07:55:00.001Z,26.74
2018-08-02T07:57:28.776Z,26.89
2018-08-02T07:59:57.558Z,27.02
2018-08-02T08:02:26.345Z,27.04
2018-08-02T08:04:55.258Z,27.01
2018-08-02T08:07:24.024Z,27.12
2018-08-02T08:09:53.012Z,27.17
2018-08-02T08:12:22.101Z,27.35
2018-08-02T08:14:50.982Z,27.39
2018-08-02T08:17:19.838Z,27.47
2018-08-02T08:19:48.654Z,27.54
2018-08-02T08:22:17.686Z,27.74
2018-08-02T08:24:46.455Z,27.88
2018-08-02T08:27:15.212Z,27.93
2018-08-02T08:29:44.290Z,28.02
2018-08-02T08:32:13.275Z,28.06
2018-08-02T08:34:42.061Z,28.13
2018-08-02T08:37:23.627Z,28.24
2018-08-02T08:39:39.550Z,28.28
2018-08-02T08:42:08.363Z,28.43
2018-08-02T08:44:37.647Z,28.62
2018-08-02T08:47:07.094Z,28.74
2018-08-02T08:49:43.923Z,28.94
2018-08-02T08:52:13.086Z,29.14
2018-08-02T08:54:42.268Z,29.38
2018-08-02T08:57:11.784Z,29.51
2018-08-02T08:59:49.352Z,29.55
2018-08-02T09:02:18.731Z,29.67
2018-08-02T09:04:47.490Z,29.80
2018-08-02T09:07:16.837Z,29.98
2018-08-02T09:09:45.860Z,30.27
2018-08-02T09:12:15.039Z,30.38
2018-08-02T09:14:43.780Z,30.53
2018-08-02T09:17:12.498Z,30.77
2018-08-02T09:19:41.482Z,30.92
2018-08-02T09:22:10.301Z,31.05
2018-08-02T09:24:39.270Z,31.16
2018-08-02T09:27:08.529Z,31.23
2018-08-02T09:29:37.250Z,31.36
2018-08-02T09:32:06.082Z,31.53
2018-08-02T09:34:35.345Z,31.70
2018-08-02T09:37:04.466Z,31.88
2018-08-02T09:39:33.491Z,32.06
2018-08-02T09:42:02.557Z,32.21
2018-08-02T09:44:31.924Z,32.36
2018-08-02T09:47:00.729Z,32.49
2018-08-02T09:49:29.753Z,32.61
2018-08-02T09:51:59.202Z,32.80
2018-08-02T09:54:28.240Z,32.96
2018-08-02T09:56:57.062Z,33.14
2018-08-02T09:59:25.792Z,33.29
2018-08-02T10:01:59.963Z,33.38
2018-08-02T10:04:28.935Z,33.50
2018-08-02T10:06:57.647Z,33.61
2018-08-02T10:09:26.370Z,33.78
2018-08-02T10:11:55.210Z,34.03
2018-08-02T10:14:24.276Z,34.24
2018-08-02T10:16:52.995Z,34.33
2018-08-02T10:19:21.703Z,34.49
2018-08-02T10:21:50.810Z,34.50
2018-08-02T10:24:19.568Z,34.68
2018-08-02T10:26:48.615Z,34.84
2018-08-02T10:29:17.815Z,34.96
2018-08-02T10:31:46.526Z,35.11
2018-08-02T10:34:15.581Z,35.15
2018-08-02T10:36:44.298Z,35.15
2018-08-02T10:39:16.224Z,35.10
2018-08-02T10:41:44.962Z,35.04
2018-08-02T10:44:13.860Z,34.87
2018-08-02T10:46:42.636Z,35.01
2018-08-02T10:49:11.967Z,35.32
2018-08-02T10:51:40.692Z,35.57
2018-08-02T10:54:10.338Z,35.49
2018-08-02T10:56:39.092Z,35.16
2018-08-02T10:59:08.157Z,35.01
2018-08-02T11:01:36.982Z,34.99
2018-08-02T11:04:05.654Z,34.96
2018-08-02T11:06:35.007Z,35.12
2018-08-02T11:09:03.958Z,35.38
2018-08-02T11:11:32.762Z,35.65
2018-08-02T11:14:05.883Z,35.80
2018-08-02T11:16:34.596Z,36.00
2018-08-02T11:19:05.288Z,36.08
2018-08-02T11:21:33.985Z,36.21
2018-08-02T11:24:02.796Z,36.32
2018-08-02T11:26:31.633Z,36.49
2018-08-02T11:29:00.348Z,36.57
2018-08-02T11:31:29.353Z,36.71
2018-08-02T11:33:58.547Z,36.87
2018-08-02T11:36:27.256Z,37.07
2018-08-02T11:38:56.645Z,37.26
2018-08-02T11:41:25.785Z,37.51
2018-08-02T11:43:54.819Z,37.65
2018-08-02T11:46:23.595Z,37.69
2018-08-02T11:48:52.359Z,37.76
2018-08-02T11:51:21.521Z,37.79
2018-08-02T11:53:50.230Z,37.81
2018-08-02T11:56:19.356Z,37.86
2018-08-02T11:58:48.609Z,37.93
2018-08-02T12:01:17.387Z,37.96
2018-08-02T12:03:46.125Z,37.66
2018-08-02T12:06:15.185Z,37.17
2018-08-02T12:08:43.943Z,36.82
2018-08-02T12:11:13.190Z,36.85
2018-08-02T12:13:41.971Z,37.14
2018-08-02T12:16:10.714Z,37.20
2018-08-02T12:18:39.462Z,37.44
2018-08-02T12:21:08.531Z,37.55
2018-08-02T12:23:37.294Z,38.01
2018-08-02T12:26:06.618Z,38.37
2018-08-02T12:28:36.001Z,38.71
2018-08-02T12:31:05.362Z,39.06
2018-08-02T12:33:34.635Z,39.48
2018-08-02T12:36:03.667Z,39.50
2018-08-02T12:38:33.643Z,39.66
2018-08-02T12:41:02.870Z,39.81
2018-08-02T12:43:31.836Z,39.78
2018-08-02T12:46:00.776Z,39.67
2018-08-02T12:48:29.809Z,39.61
2018-08-02T12:50:58.525Z,39.43
2018-08-02T12:53:27.595Z,39.40
2018-08-02T12:55:56.392Z,39.47
2018-08-02T12:58:25.041Z,39.49
2018-08-02T13:00:54.073Z,39.57
2018-08-02T13:03:22.833Z,39.61
2018-08-02T13:05:51.601Z,39.70
2018-08-02T13:08:20.671Z,39.88
2018-08-02T13:10:49.776Z,39.86
2018-08-02T13:13:18.507Z,39.59
2018-08-02T13:15:47.299Z,39.58
2018-08-02T13:18:16.256Z,39.77
2018-08-02T13:20:45.018Z,39.94
2018-08-02T13:23:13.759Z,40.10
2018-08-02T13:25:42.493Z,39.94
2018-08-02T13:28:11.559Z,39.78
2018-08-02T13:30:40.632Z,39.61
2018-08-02T13:33:09.351Z,39.56
2018-08-02T13:35:38.353Z,39.75
2018-08-02T13:38:07.389Z,39.64
2018-08-02T13:40:36.177Z,39.46
2018-08-02T13:43:05.200Z,39.31
2018-08-02T13:45:34.987Z,39.17
2018-08-02T13:48:03.716Z,39.08
2018-08-02T13:50:32.493Z,39.02
2018-08-02T13:53:01.240Z,39.09
2018-08-02T13:55:30.230Z,39.37
2018-08-02T13:57:59.255Z,39.49
2018-08-02T14:00:28.046Z,39.68
2018-08-02T14:02:57.009Z,40.06
2018-08-02T14:05:25.723Z,40.34
2018-08-02T14:07:54.749Z,40.45
2018-08-02T14:10:23.489Z,39.96
2018-08-02T14:12:52.205Z,39.77
2018-08-02T14:15:21.533Z,39.63
2018-08-02T14:17:50.255Z,39.12
2018-08-02T14:20:19.253Z,38.80
2018-08-02T14:22:47.926Z,39.10
2018-08-02T14:25:17.135Z,39.51
2018-08-02T14:27:46.146Z,39.58
2018-08-02T14:30:15.212Z,39.63
2018-08-02T14:32:44.201Z,39.51
2018-08-02T14:35:12.949Z,39.30
2018-08-02T14:37:41.702Z,39.34
2018-08-02T14:40:10.862Z,39.21
2018-08-02T14:42:39.647Z,39.10
2018-08-02T14:45:08.364Z,38.94
2018-08-02T14:47:37.415Z,38.99
2018-08-02T14:50:06.162Z,38.91
2018-08-02T14:52:34.928Z,39.11
2018-08-02T14:55:03.678Z,39.31
2018-08-02T14:57:33.541Z,39.37
2018-08-02T15:00:02.908Z,39.04
2018-08-02T15:02:31.625Z,38.82
2018-08-02T15:05:00.321Z,38.63
2018-08-02T15:07:29.092Z,38.49
2018-08-02T15:09:58.124Z,38.67
2018-08-02T15:12:27.751Z,38.72
2018-08-02T15:14:57.186Z,38.76
2018-08-02T15:17:25.957Z,38.87
2018-08-02T15:19:55.431Z,39.08
2018-08-02T15:22:24.463Z,39.27
2018-08-02T15:24:53.386Z,39.22
2018-08-02T15:27:22.146Z,39.07
2018-08-02T15:29:50.868Z,39.10
2018-08-02T15:32:19.884Z,39.02
2018-08-02T15:34:48.980Z,38.83
2018-08-02T15:37:18.236Z,38.67
2018-08-02T15:39:47.028Z,38.47
2018-08-02T15:42:16.281Z,38.01
2018-08-02T15:44:45.079Z,37.89
2018-08-02T15:47:14.397Z,37.80
2018-08-02T15:49:43.099Z,37.53
2018-08-02T15:52:12.860Z,37.43
2018-08-02T15:54:41.786Z,37.31
2018-08-02T15:57:10.761Z,37.36
2018-08-02T15:59:39.827Z,37.35
2018-08-02T16:02:08.576Z,37.45
2018-08-02T16:04:37.291Z,37.25
2018-08-02T16:07:06.013Z,36.84
2018-08-02T16:09:34.753Z,36.32
2018-08-02T16:12:04.062Z,36.19
2018-08-02T16:14:33.258Z,35.85
2018-08-02T16:17:02.417Z,35.72
2018-08-02T16:19:31.173Z,35.42
2018-08-02T16:22:00.145Z,35.21
2018-08-02T16:24:29.367Z,34.95
2018-08-02T16:26:58.339Z,34.68
2018-08-02T16:29:27.122Z,34.37
2018-08-02T16:31:55.936Z,34.24
2018-08-02T16:34:24.610Z,34.09
2018-08-02T16:36:53.587Z,33.68
2018-08-02T16:39:22.317Z,33.50
2018-08-02T16:41:51.019Z,33.36
2018-08-02T16:44:20.066Z,33.39
2018-08-02T16:46:48.786Z,33.35
2018-08-02T16:49:17.477Z,33.26
2018-08-02T16:51:46.266Z,33.25
2018-08-02T16:54:15.033Z,33.21
2018-08-02T16:56:44.347Z,33.16
2018-08-02T16:59:13.129Z,32.76
2018-08-02T17:01:42.084Z,32.44
2018-08-02T17:04:10.827Z,32.43
2018-08-02T17:06:39.560Z,32.31
2018-08-02T17:09:10.183Z,32.31
2018-08-02T17:11:39.566Z,32.29
2018-08-02T17:14:08.962Z,31.97
2018-08-02T17:16:37.977Z,31.85
2018-08-02T17:19:07.564Z,31.76
2018-08-02T17:21:36.433Z,31.65
2018-08-02T17:24:05.172Z,31.69
2018-08-02T17:26:33.887Z,31.67
2018-08-02T17:29:03.199Z,31.54
2018-08-02T17:31:32.011Z,31.49
2018-08-02T17:34:00.717Z,31.31
2018-08-02T17:36:29.409Z,31.06
2018-08-02T17:38:58.132Z,30.87
2018-08-02T17:41:27.123Z,30.75
2018-08-02T17:43:56.408Z,30.69
2018-08-02T17:46:25.177Z,30.69
2018-08-02T17:48:54.143Z,30.58
2018-08-02T17:51:22.948Z,30.38
2018-08-02T17:53:51.735Z,30.24
2018-08-02T17:56:20.811Z,30.14
2018-08-02T17:58:49.997Z,30.01
2018-08-02T18:01:19.065Z,29.90
2018-08-02T18:03:47.832Z,29.83
2018-08-02T18:06:16.739Z,29.68
2018-08-02T18:08:45.493Z,29.65
2018-08-02T18:11:14.530Z,29.55
2018-08-02T18:13:43.927Z,29.45
2018-08-02T18:16:12.837Z,29.40
2018-08-02T18:18:41.722Z,29.26
2018-08-02T18:21:11.000Z,29.20
2018-08-02T18:23:39.768Z,29.11
2018-08-02T18:26:08.503Z,29.08
2018-08-02T18:28:37.177Z,29.05
2018-08-02T18:31:05.915Z,29.04
2018-08-02T18:33:36.284Z,28.95
2018-08-02T18:36:04.995Z,28.92
2018-08-02T18:38:33.972Z,28.77
2018-08-02T18:41:03.392Z,28.77
2018-08-02T18:43:32.349Z,28.67
2018-08-02T18:46:01.120Z,28.46
2018-08-02T18:48:30.077Z,28.38
2018-08-02T18:50:58.819Z,28.27
2018-08-02T18:53:27.790Z,28.17
2018-08-02T18:55:56.725Z,28.14
2018-08-02T18:58:25.484Z,28.11
2018-08-02T19:00:55.710Z,28.07
2018-08-02T19:03:24.854Z,27.93
2018-08-02T19:05:53.601Z,27.81
2018-08-02T19:08:22.664Z,27.71
2018-08-02T19:10:52.351Z,27.64
2018-08-02T19:13:21.056Z,27.59
2018-08-02T19:15:49.784Z,27.55
2018-08-02T19:18:18.599Z,27.52
2018-08-02T19:20:47.620Z,27.40
2018-08-02T19:23:16.891Z,27.34
2018-08-02T19:25:45.717Z,27.30
2018-08-02T19:28:14.394Z,27.18
2018-08-02T19:30:44.932Z,27.08
2018-08-02T19:33:15.612Z,26.95
2018-08-02T19:35:45.022Z,26.88
2018-08-02T19:38:13.794Z,26.82
2018-08-02T19:40:42.533Z,26.76
2018-08-02T19:43:14.589Z,26.71
2018-08-02T19:45:43.592Z,26.62
2018-08-02T19:48:12.511Z,26.53
2018-08-02T19:50:41.770Z,26.47
2018-08-02T19:53:10.834Z,26.41
2018-08-02T19:55:39.567Z,26.40
2018-08-02T19:58:08.553Z,26.35
2018-08-02T20:00:37.807Z,26.30
2018-08-02T20:03:06.626Z,26.23
2018-08-02T20:05:35.884Z,26.17
2018-08-02T20:08:04.620Z,26.09
2018-08-02T20:10:33.962Z,26.03
2018-08-02T20:13:03.080Z,25.95
2018-08-02T20:15:32.278Z,25.91
2018-08-02T20:18:01.270Z,25.82
2018-08-02T20:20:30.351Z,25.71
2018-08-02T20:22:59.368Z,25.62
2018-08-02T20:25:28.415Z,25.58
2018-08-02T20:27:57.757Z,25.57
2018-08-02T20:30:26.460Z,25.57
2018-08-02T20:32:55.869Z,25.57
2018-08-02T20:35:24.578Z,25.54
2018-08-02T20:37:53.795Z,25.52
2018-08-02T20:40:22.952Z,25.50
2018-08-02T20:42:51.969Z,25.42
2018-08-02T20:45:20.739Z,25.37
2018-08-02T20:47:49.457Z,25.30
2018-08-02T20:50:18.220Z,25.21
2018-08-02T20:52:47.332Z,25.12
2018-08-02T20:55:16.317Z,25.08
2018-08-02T20:57:45.057Z,25.05
2018-08-02T21:00:14.586Z,25.02
2018-08-02T21:02:43.615Z,24.94
2018-08-02T21:05:12.439Z,24.89
2018-08-02T21:07:41.181Z,24.84
2018-08-02T21:10:09.995Z,24.78
2018-08-02T21:12:38.968Z,24.74
2018-08-02T21:15:07.992Z,24.70
2018-08-02T21:17:37.041Z,24.66
2018-08-02T21:20:06.359Z,24.62
2018-08-02T21:22:35.722Z,24.56
2018-08-02T21:25:05.018Z,24.53
2018-08-02T21:27:33.640Z,24.49
2018-08-02T21:30:02.375Z,24.49
2018-08-02T21:32:31.461Z,24.48
2018-08-02T21:35:00.419Z,24.46
2018-08-02T21:37:35.532Z,24.44
2018-08-02T21:40:04.536Z,24.41
2018-08-02T21:42:33.574Z,24.37
2018-08-02T21:45:02.314Z,24.29
2018-08-02T21:47:31.207Z,24.21
2018-08-02T21:49:59.976Z,24.14
2018-08-02T21:52:29.052Z,24.03
2018-08-02T21:55:04.345Z,23.97
2018-08-02T21:57:41.055Z,23.93
2018-08-02T22:00:25.606Z,23.89
2018-08-02T22:02:54.446Z,23.86
2018-08-02T22:05:23.191Z,23.84
2018-08-02T22:07:51.965Z,23.83
2018-08-02T22:10:21.213Z,23.81
2018-08-02T22:12:55.147Z,23.71
2018-08-02T22:15:29.298Z,23.68
2018-08-02T22:17:58.544Z,23.66
2018-08-02T22:20:27.561Z,23.65
2018-08-02T22:22:56.872Z,23.62
2018-08-02T22:25:25.603Z,23.62
2018-08-02T22:27:54.572Z,23.60
2018-08-02T22:30:23.697Z,23.56
2018-08-02T22:32:53.105Z,23.54
2018-08-02T22:35:21.868Z,23.50
2018-08-02T22:37:50.799Z,23.48
2018-08-02T22:40:19.945Z,23.42
2018-08-02T22:42:49.172Z,23.35
2018-08-02T22:45:17.971Z,23.31
2018-08-02T22:47:47.025Z,23.26
2018-08-02T22:50:15.981Z,23.22
2018-08-02T22:52:44.846Z,23.18
2018-08-02T22:55:13.905Z,23.14
2018-08-02T22:57:43.524Z,23.10
2018-08-02T23:00:12.649Z,23.07
2018-08-02T23:02:41.679Z,23.04
2018-08-02T23:05:11.574Z,22.99
2018-08-02T23:07:40.456Z,22.97
2018-08-02T23:10:09.222Z,22.95
2018-08-02T23:12:38.259Z,22.92
2018-08-02T23:15:08.343Z,22.90
2018-08-02T23:17:37.319Z,22.85
2018-08-02T23:20:07.471Z,22.84
2018-08-02T23:22:36.537Z,22.82
2018-08-02T23:25:05.704Z,22.78
2018-08-02T23:27:34.849Z,22.75
2018-08-02T23:30:03.736Z,22.70
2018-08-02T23:32:32.475Z,22.64
2018-08-02T23:35:01.190Z,22.58
2018-08-02T23:37:30.876Z,22.53
2018-08-02T23:39:59.614Z,22.52
2018-08-02T23:42:28.755Z,22.47
2018-08-02T23:44:57.487Z,22.42
2018-08-02T23:47:26.449Z,22.41
2018-08-02T23:49:55.200Z,22.34
2018-08-02T23:52:24.456Z,22.29
2018-08-02T23:54:53.648Z,22.22
2018-08-02T23:57:22.621Z,22.15
2018-08-02T23:59:51.574Z,22.13
